createdAt,value
2023-04-18T00:00:48.770Z,4.28
2023-04-18T00:03:55.411Z,5.60
2023-04-18T00:06:59.016Z,4.00
2023-04-18T00:10:03.474Z,6.10
2023-04-18T00:13:07.527Z,4.22
2023-04-18T00:16:13.314Z,4.47
2023-04-18T00:19:18.900Z,4.68
2023-04-18T00:22:22.891Z,5.28
2023-04-18T00:25:26.680Z,3.97
2023-04-18T00:28:30.375Z,5.07
2023-04-18T00:31:33.970Z,3.20
2023-04-18T00:34:40.442Z,4.15
2023-04-18T00:37:43.931Z,5.67
2023-04-18T00:40:47.711Z,5.35
2023-04-18T00:43:51.425Z,6.60
2023-04-18T00:46:55.161Z,5.37
2023-04-18T00:50:00.761Z,5.93
2023-04-18T00:53:05.110Z,5.10
2023-04-18T00:56:08.920Z,6.28
2023-04-18T00:59:13.197Z,6.07
2023-04-18T01:02:17.404Z,5.35
2023-04-18T01:05:24.668Z,5.35
2023-04-18T01:08:28.915Z,4.70
2023-04-18T01:11:36.029Z,4.93
2023-04-18T01:14:43.421Z,4.75
2023-04-18T01:17:47.411Z,5.33
2023-04-18T01:20:54.977Z,4.70
2023-04-18T01:24:07.742Z,4.97
2023-04-18T01:27:13.593Z,5.00
2023-04-18T01:30:17.345Z,4.35
2023-04-18T01:33:20.963Z,4.75
2023-04-18T01:36:24.696Z,4.75
2023-04-18T01:39:30.144Z,4.33
2023-04-18T01:42:33.901Z,4.55
2023-04-18T01:45:37.640Z,3.97
2023-04-18T01:48:41.354Z,4.20
2023-04-18T01:51:45.078Z,4.70
2023-04-18T01:54:50.166Z,5.00
2023-04-18T01:57:56.202Z,4.40
2023-04-18T02:01:00.015Z,6.60
2023-04-18T02:04:03.865Z,5.25
2023-04-18T02:07:07.633Z,4.35
2023-04-18T02:10:13.964Z,4.67
2023-04-18T02:13:17.669Z,4.78
2023-04-18T02:16:21.723Z,3.95
2023-04-18T02:19:25.739Z,5.70
2023-04-18T02:22:29.366Z,5.45
2023-04-18T02:25:34.613Z,5.85
2023-04-18T02:28:39.200Z,5.68
2023-04-18T02:31:43.359Z,7.00
2023-04-18T02:34:47.423Z,6.47
2023-04-18T02:37:53.505Z,6.43
2023-04-18T02:40:58.318Z,8.67
2023-04-18T02:44:03.902Z,7.88
2023-04-18T02:47:07.828Z,7.85
2023-04-18T02:50:16.230Z,8.90
2023-04-18T02:53:19.903Z,8.38
2023-04-18T02:56:31.054Z,10.27
2023-04-18T02:59:54.938Z,9.50
2023-04-18T03:02:58.659Z,8.73
2023-04-18T03:06:16.768Z,9.43
2023-04-18T03:09:20.535Z,9.55
2023-04-18T03:12:31.472Z,12.53
2023-04-18T03:15:35.424Z,10.38
2023-04-18T03:18:39.603Z,10.57
2023-04-18T03:21:43.439Z,8.40
2023-04-18T03:24:48.732Z,9.38
2023-04-18T03:27:55.318Z,10.95
2023-04-18T03:31:00.943Z,8.50
2023-04-18T03:34:04.999Z,10.15
2023-04-18T03:37:09.003Z,10.52
2023-04-18T03:40:19.028Z,9.90
2023-04-18T03:43:25.840Z,8.67
2023-04-18T03:46:29.936Z,11.20
2023-04-18T03:49:35.038Z,10.70
2023-04-18T03:52:40.561Z,10.00
2023-04-18T03:55:44.878Z,12.13
2023-04-18T03:58:53.459Z,13.05
2023-04-18T04:01:59.053Z,12.65
2023-04-18T04:05:03.598Z,9.85
2023-04-18T04:08:07.680Z,11.10
2023-04-18T04:11:11.867Z,10.20
2023-04-18T04:14:17.950Z,11.33
2023-04-18T04:17:23.206Z,10.38
2023-04-18T04:20:28.649Z,12.98
2023-04-18T04:23:43.577Z,11.53
2023-04-18T04:26:52.482Z,10.65
2023-04-18T04:30:02.555Z,11.65
2023-04-18T04:33:06.880Z,12.65
2023-04-18T04:36:15.689Z,11.55
2023-04-18T04:39:22.183Z,13.88
2023-04-18T04:42:44.188Z,13.75
2023-04-18T04:45:57.711Z,14.03
2023-04-18T04:49:01.953Z,11.50
2023-04-18T04:52:05.525Z,16.80
2023-04-18T04:55:09.932Z,13.53
2023-04-18T04:58:13.496Z,13.93
2023-04-18T05:01:36.434Z,14.55
2023-04-18T05:04:40.385Z,13.02
2023-04-18T05:07:44.181Z,13.25
2023-04-18T05:10:47.714Z,12.23
2023-04-18T05:13:51.382Z,14.05
2023-04-18T05:16:56.768Z,15.37
2023-04-18T05:20:00.484Z,13.68
2023-04-18T05:23:04.215Z,16.17
2023-04-18T05:26:08.204Z,14.90
2023-04-18T05:29:11.776Z,12.88
2023-04-18T05:32:18.684Z,12.85
2023-04-18T05:35:22.307Z,15.27
2023-04-18T05:38:26.387Z,14.20
2023-04-18T05:41:30.131Z,13.27
2023-04-18T05:44:33.877Z,13.60
2023-04-18T05:47:38.871Z,14.17
2023-04-18T05:50:42.607Z,12.45
2023-04-18T05:53:46.455Z,11.45
2023-04-18T05:56:50.258Z,15.13
2023-04-18T05:59:53.856Z,14.65
2023-04-18T06:02:59.187Z,14.02
2023-04-18T06:06:02.893Z,9.52
2023-04-18T06:09:06.614Z,12.15
2023-04-18T06:12:10.253Z,12.30
2023-04-18T06:15:13.927Z,11.20
2023-04-18T06:18:19.014Z,12.53
2023-04-18T06:21:23.356Z,13.48
2023-04-18T06:24:27.964Z,11.70
2023-04-18T06:27:32.423Z,10.23
2023-04-18T06:30:36.586Z,11.43
2023-04-18T06:33:41.697Z,8.88
2023-04-18T06:36:45.302Z,10.07
2023-04-18T06:39:48.992Z,9.52
2023-04-18T06:42:52.320Z,9.63
2023-04-18T06:45:56.904Z,9.88
2023-04-18T06:49:02.193Z,12.60
2023-04-18T06:52:05.904Z,8.93
2023-04-18T06:55:10.339Z,9.73
2023-04-18T06:58:16.269Z,13.47
2023-04-18T07:01:19.952Z,12.88
2023-04-18T07:04:25.235Z,10.48
2023-04-18T07:07:29.255Z,8.50
2023-04-18T07:10:33.167Z,10.48
2023-04-18T07:13:36.560Z,11.60
2023-04-18T07:16:40.314Z,11.38
2023-04-18T07:19:45.502Z,15.07
2023-04-18T07:22:50.072Z,9.43
2023-04-18T07:25:53.625Z,10.20
2023-04-18T07:28:57.304Z,13.70
2023-04-18T07:32:00.814Z,9.63
2023-04-18T07:35:06.808Z,9.38
2023-04-18T07:38:11.682Z,11.88
2023-04-18T07:41:15.352Z,8.65
2023-04-18T07:44:21.440Z,13.77
2023-04-18T07:47:26.904Z,10.57
2023-04-18T07:50:33.160Z,10.90
2023-04-18T07:53:36.816Z,8.32
2023-04-18T07:56:40.198Z,10.75
2023-04-18T07:59:43.829Z,12.20
2023-04-18T08:02:47.546Z,8.73
2023-04-18T08:05:52.664Z,9.85
2023-04-18T08:08:57.512Z,10.88
2023-04-18T08:12:01.308Z,8.68
2023-04-18T08:15:05.748Z,10.30
2023-04-18T08:18:09.404Z,10.15
2023-04-18T08:21:14.381Z,10.23
2023-04-18T08:24:18.003Z,8.27
2023-04-18T08:27:21.630Z,12.85
2023-04-18T08:30:25.797Z,10.27
2023-04-18T08:33:30.132Z,10.73
2023-04-18T08:36:36.244Z,8.55
2023-04-18T08:39:39.840Z,9.50
2023-04-18T08:42:45.443Z,9.10
2023-04-18T08:45:49.139Z,11.35
2023-04-18T08:48:53.630Z,9.65
2023-04-18T08:52:01.739Z,14.30
2023-04-18T08:55:06.444Z,12.00
2023-04-18T08:58:12.574Z,11.32
2023-04-18T09:01:17.840Z,10.73
2023-04-18T09:04:37.341Z,11.45
2023-04-18T09:07:43.961Z,10.57
2023-04-18T09:10:47.508Z,13.68
2023-04-18T09:13:51.862Z,10.73
2023-04-18T09:16:56.385Z,9.68
2023-04-18T09:20:02.004Z,11.40
2023-04-18T09:23:11.044Z,9.30
2023-04-18T09:26:25.184Z,9.75
2023-04-18T09:29:46.679Z,10.95
2023-04-18T09:32:59.366Z,9.13
2023-04-18T09:36:18.942Z,8.33
2023-04-18T09:39:29.466Z,9.98
2023-04-18T09:42:38.314Z,10.63
2023-04-18T09:45:42.035Z,11.25
2023-04-18T09:48:45.759Z,8.88
2023-04-18T09:51:52.457Z,7.78
2023-04-18T09:55:00.355Z,8.37
2023-04-18T09:58:08.741Z,9.40
2023-04-18T10:01:13.546Z,8.85
2023-04-18T10:04:19.194Z,6.07
2023-04-18T10:07:26.727Z,6.57
2023-04-18T10:10:31.977Z,7.40
2023-04-18T10:13:40.616Z,8.38
2023-04-18T10:16:48.637Z,7.63
2023-04-18T10:20:08.220Z,7.53
2023-04-18T10:23:48.730Z,8.18
2023-04-18T10:26:53.919Z,8.02
2023-04-18T10:29:57.376Z,8.60
2023-04-18T10:33:31.137Z,8.07
2023-04-18T10:36:38.957Z,8.57
2023-04-18T10:39:58.605Z,9.13
2023-04-18T10:43:03.516Z,7.93
2023-04-18T10:46:24.256Z,6.80
2023-04-18T10:49:34.189Z,6.95
2023-04-18T10:52:38.172Z,6.23
2023-04-18T10:55:54.285Z,5.78
2023-04-18T10:59:04.618Z,7.20
2023-04-18T11:02:28.849Z,11.55
2023-04-18T11:05:33.143Z,5.97
2023-04-18T11:08:36.528Z,7.10
2023-04-18T11:11:41.469Z,9.48
2023-04-18T11:14:49.513Z,7.82
2023-04-18T11:18:02.112Z,6.65
2023-04-18T11:21:06.278Z,7.53
2023-04-18T11:24:10.247Z,6.82
2023-04-18T11:27:14.090Z,10.00
2023-04-18T11:30:20.116Z,7.70
2023-04-18T11:33:24.793Z,9.10
2023-04-18T11:36:28.795Z,6.40
2023-04-18T11:39:36.548Z,7.30
2023-04-18T11:42:42.557Z,6.30
2023-04-18T11:45:57.481Z,7.32
2023-04-18T11:49:01.255Z,6.50
2023-04-18T11:52:12.800Z,6.60
2023-04-18T11:55:21.419Z,6.82
2023-04-18T11:58:32.979Z,8.07
2023-04-18T12:01:38.192Z,7.03
2023-04-18T12:04:56.096Z,7.88
2023-04-18T12:08:08.386Z,6.60
2023-04-18T12:11:20.802Z,8.13
2023-04-18T12:14:24.814Z,8.85
2023-04-18T12:17:30.144Z,6.75
2023-04-18T12:20:39.133Z,6.03
2023-04-18T12:23:42.873Z,6.03
2023-04-18T12:26:47.126Z,5.63
2023-04-18T12:29:50.564Z,6.60
2023-04-18T12:32:58.057Z,7.15
2023-04-18T12:36:01.442Z,8.30
2023-04-18T12:39:05.830Z,10.98
2023-04-18T12:42:09.189Z,9.73
2023-04-18T12:45:14.572Z,7.25
2023-04-18T12:48:19.575Z,8.23
2023-04-18T12:51:23.338Z,7.55
2023-04-18T12:54:26.690Z,6.53
2023-04-18T12:57:31.884Z,7.23
2023-04-18T13:00:35.737Z,7.50
2023-04-18T13:03:42.136Z,6.00
2023-04-18T13:06:45.731Z,7.50
2023-04-18T13:09:50.152Z,6.57
2023-04-18T13:12:54.398Z,8.77
2023-04-18T13:15:58.083Z,7.83
2023-04-18T13:19:02.928Z,6.70
2023-04-18T13:22:06.867Z,8.70
2023-04-18T13:25:12.107Z,6.35
2023-04-18T13:28:15.892Z,7.30
2023-04-18T13:31:19.422Z,6.10
2023-04-18T13:34:24.933Z,6.45
2023-04-18T13:37:28.333Z,7.00
2023-04-18T13:40:33.615Z,6.13
2023-04-18T13:43:37.072Z,6.63
2023-04-18T13:46:41.449Z,7.10
2023-04-18T13:49:46.250Z,5.70
2023-04-18T13:52:52.029Z,5.22
2023-04-18T13:55:55.808Z,5.90
2023-04-18T13:58:59.806Z,7.57
2023-04-18T14:02:03.360Z,6.20
2023-04-18T14:05:10.113Z,5.70
2023-04-18T14:08:14.229Z,8.20
2023-04-18T14:11:18.389Z,8.18
2023-04-18T14:14:21.820Z,7.13
2023-04-18T14:17:25.866Z,7.30
2023-04-18T14:20:34.368Z,5.72
2023-04-18T14:23:38.335Z,8.07
2023-04-18T14:26:41.841Z,7.28
2023-04-18T14:29:45.666Z,6.93
2023-04-18T14:32:49.029Z,7.32
2023-04-18T14:35:54.326Z,6.78
2023-04-18T14:38:57.772Z,10.32
2023-04-18T14:42:01.864Z,10.15
2023-04-18T14:45:06.395Z,9.63
2023-04-18T14:48:10.592Z,10.43
2023-04-18T14:51:16.837Z,10.70
2023-04-18T14:54:20.868Z,9.15
2023-04-18T14:57:25.002Z,10.17
2023-04-18T15:00:29.492Z,11.43
2023-04-18T15:03:33.972Z,10.30
2023-04-18T15:06:39.234Z,10.88
2023-04-18T15:09:42.620Z,10.20
2023-04-18T15:12:47.670Z,10.68
2023-04-18T15:15:55.372Z,13.15
2023-04-18T15:19:00.475Z,10.07
2023-04-18T15:22:05.347Z,11.43
2023-04-18T15:25:10.013Z,11.50
2023-04-18T15:28:14.322Z,10.13
2023-04-18T15:31:18.335Z,10.32
2023-04-18T15:34:21.841Z,10.77
2023-04-18T15:37:27.592Z,8.98
2023-04-18T15:40:32.935Z,8.73
2023-04-18T15:43:36.960Z,10.57
2023-04-18T15:46:40.993Z,9.68
2023-04-18T15:49:45.157Z,9.68
2023-04-18T15:52:49.930Z,10.65
2023-04-18T15:55:54.090Z,7.78
2023-04-18T15:58:58.723Z,9.47
2023-04-18T16:02:03.014Z,6.78
2023-04-18T16:05:08.487Z,9.65
2023-04-18T16:08:14.274Z,7.95
2023-04-18T16:11:19.704Z,8.53
2023-04-18T16:14:23.604Z,8.50
2023-04-18T16:17:27.028Z,7.70
2023-04-18T16:20:33.344Z,7.32
2023-04-18T16:23:38.506Z,5.85
2023-04-18T16:26:42.369Z,7.75
2023-04-18T16:29:46.101Z,8.35
2023-04-18T16:32:49.937Z,9.00
2023-04-18T16:35:57.766Z,10.93
2023-04-18T16:39:04.637Z,10.25
2023-04-18T16:42:08.038Z,11.93
2023-04-18T16:45:11.938Z,11.35
2023-04-18T16:48:15.403Z,12.68
2023-04-18T16:51:19.368Z,14.55
2023-04-18T16:54:24.209Z,14.75
2023-04-18T16:57:28.131Z,18.77
2023-04-18T17:00:31.639Z,16.55
2023-04-18T17:03:36.578Z,18.30
2023-04-18T17:06:42.141Z,18.08
2023-04-18T17:09:48.014Z,20.95
2023-04-18T17:12:51.506Z,19.23
2023-04-18T17:15:55.351Z,16.83
2023-04-18T17:18:58.871Z,17.73
2023-04-18T17:22:03.667Z,18.30
2023-04-18T17:25:09.740Z,17.23
2023-04-18T17:28:14.020Z,20.25
2023-04-18T17:31:17.551Z,19.42
2023-04-18T17:34:21.436Z,18.63
2023-04-18T17:37:25.084Z,14.75
2023-04-18T17:40:30.324Z,14.85
2023-04-18T17:43:33.798Z,13.33
2023-04-18T17:46:37.785Z,17.80
2023-04-18T17:49:41.294Z,16.65
2023-04-18T17:52:46.395Z,22.52
2023-04-18T17:55:52.334Z,16.05
2023-04-18T17:58:56.774Z,16.70
2023-04-18T18:02:00.356Z,16.42
2023-04-18T18:05:05.268Z,14.93
2023-04-18T18:08:09.133Z,17.02
2023-04-18T18:11:14.320Z,16.23
2023-04-18T18:14:17.819Z,17.40
2023-04-18T18:17:22.077Z,17.10
2023-04-18T18:20:27.346Z,15.57
2023-04-18T18:23:31.702Z,17.48
2023-04-18T18:26:37.553Z,16.63
2023-04-18T18:29:41.594Z,16.13
2023-04-18T18:32:45.051Z,15.68
2023-04-18T18:35:48.931Z,17.13
2023-04-18T18:38:52.360Z,15.85
2023-04-18T18:41:58.546Z,18.10
2023-04-18T18:45:01.975Z,14.70
2023-04-18T18:48:07.673Z,18.42
2023-04-18T18:51:11.600Z,20.75
2023-04-18T18:54:15.955Z,18.75
2023-04-18T18:57:20.786Z,19.98
2023-04-18T19:00:24.972Z,16.13
2023-04-18T19:03:28.497Z,16.25
2023-04-18T19:06:32.615Z,16.13
2023-04-18T19:09:36.951Z,13.82
2023-04-18T19:12:42.110Z,16.27
2023-04-18T19:15:45.532Z,19.00
2023-04-18T19:18:50.792Z,16.48
2023-04-18T19:21:54.261Z,20.35
2023-04-18T19:25:00.598Z,14.73
2023-04-18T19:28:06.035Z,21.15
2023-04-18T19:31:10.530Z,15.82
2023-04-18T19:34:14.036Z,15.93
2023-04-18T19:37:18.032Z,15.63
2023-04-18T19:40:23.628Z,17.45
2023-04-18T19:43:29.125Z,15.95
2023-04-18T19:46:32.574Z,12.67
2023-04-18T19:49:36.598Z,15.50
2023-04-18T19:52:40.176Z,16.38
2023-04-18T19:55:46.161Z,16.08
2023-04-18T19:58:51.080Z,17.90
2023-04-18T20:01:55.172Z,14.88
2023-04-18T20:04:58.711Z,17.52
2023-04-18T20:08:03.300Z,16.20
2023-04-18T20:11:10.058Z,13.63
2023-04-18T20:14:15.318Z,14.48
2023-04-18T20:17:19.127Z,17.77
2023-04-18T20:20:23.630Z,15.80
2023-04-18T20:23:27.106Z,14.68
2023-04-18T20:26:31.300Z,17.63
2023-04-18T20:29:36.623Z,17.17
2023-04-18T20:32:40.455Z,20.58
2023-04-18T20:35:46.716Z,22.08
2023-04-18T20:38:50.572Z,19.07
2023-04-18T20:41:57.584Z,20.40
2023-04-18T20:45:03.108Z,18.60
2023-04-18T20:48:07.484Z,21.63
2023-04-18T20:51:11.248Z,19.80
2023-04-18T20:54:15.095Z,18.15
2023-04-18T20:57:20.403Z,32.17
2023-04-18T21:00:25.878Z,23.52
2023-04-18T21:03:29.767Z,26.42
2023-04-18T21:06:33.356Z,18.65
2023-04-18T21:09:37.673Z,18.53
2023-04-18T21:12:41.409Z,20.70
2023-04-18T21:15:46.796Z,19.58
2023-04-18T21:18:50.317Z,19.13
2023-04-18T21:21:54.085Z,24.50
2023-04-18T21:24:57.869Z,21.90
2023-04-18T21:28:01.853Z,18.58
2023-04-18T21:31:06.910Z,20.85
2023-04-18T21:34:11.407Z,17.10
2023-04-18T21:37:14.943Z,17.95
2023-04-18T21:40:18.815Z,16.87
2023-04-18T21:43:22.233Z,16.45
2023-04-18T21:46:27.542Z,19.33
2023-04-18T21:49:30.998Z,29.83
2023-04-18T21:52:34.952Z,17.38
2023-04-18T21:55:38.431Z,18.02
2023-04-18T21:58:42.295Z,16.05
2023-04-18T22:01:47.205Z,14.32
2023-04-18T22:04:50.868Z,17.20
2023-04-18T22:07:58.414Z,16.10
2023-04-18T22:11:02.955Z,16.07
2023-04-18T22:14:06.583Z,14.98
2023-04-18T22:17:11.628Z,18.63
2023-04-18T22:20:15.182Z,17.90
2023-04-18T22:23:18.800Z,15.68
2023-04-18T22:26:22.342Z,16.33
2023-04-18T22:29:26.028Z,16.17
2023-04-18T22:32:30.938Z,14.18
2023-04-18T22:35:34.665Z,14.90
2023-04-18T22:38:38.262Z,16.35
2023-04-18T22:41:42.049Z,14.20
2023-04-18T22:44:45.458Z,15.00
2023-04-18T22:47:50.828Z,15.55
2023-04-18T22:50:54.256Z,15.03
2023-04-18T22:53:58.234Z,14.23
2023-04-18T22:57:02.124Z,15.52
2023-04-18T23:00:07.595Z,15.02
2023-04-18T23:03:12.556Z,14.82
2023-04-18T23:06:17.523Z,12.73
2023-04-18T23:09:21.114Z,13.77
2023-04-18T23:12:25.414Z,15.77
2023-04-18T23:15:28.956Z,13.27
2023-04-18T23:18:34.071Z,14.77
2023-04-18T23:21:37.522Z,13.43
2023-04-18T23:24:41.536Z,14.07
2023-04-18T23:27:44.971Z,12.90
2023-04-18T23:30:50.169Z,13.93
2023-04-18T23:33:56.347Z,13.95
2023-04-18T23:37:00.241Z,12.45
2023-04-18T23:40:06.711Z,11.35
2023-04-18T23:43:10.592Z,11.70
2023-04-18T23:46:14.130Z,13.00
2023-04-18T23:49:19.602Z,11.98
2023-04-18T23:52:23.448Z,13.63
2023-04-18T23:55:27.275Z,12.10
2023-04-18T23:58:31.713Z,12.50
